Roanoke Regional Woodrum Field
KROA : now visible

Airfield :











YOU CAN JOIN US ON...

 
LOGIN :

Register | Disclaimer

   EN    FR    IT 

 









Legend :    VFR   Marginal VFR   IFR   Intensive IFR   Very Intensive IFR
Visi :
Ceiling :
>= 8 km
>= 3000ft
5 to 8 km
1000 to 3000 ft
1500m to 5 km
500 to 1000 ft
800 to 1500m
200 to 500 ft
< 800m
< 200 ft
Symbols :   Thunderstorms  Fog  Heavy snow  Heavy precipitations  Wind > 20 kt






- Airport Elevation : 1175 ft
- IATA code : ROA


KROA - Roanoke Regional Woodrum Field

CURRENT METAR :
  • 251923Z 15005KT 2SM RA BR FEW003 OVC010 03/02 A2997 RMK AO2 P0003 T00330022

EXPIRED METARs :
  • 251906Z 16006KT 3SM -RA BR OVC010 03/02 A2996 RMK AO2 P0001 T00330022
  • 251854Z 13005KT 2SM -RA BR OVC009 03/02 A2995 RMK AO2 PRESFR SLP149 P0004 T00330022
  • 251826Z 00000KT 8SM -RA BKN009 OVC028 04/03 A2997 RMK AO2 P0000 T00390028
  • 251817Z 00000KT 6SM -RA BR SCT009 BKN028 OVC060 04/02 A2997 RMK AO2 P0000 T00390022
  • 251754Z 24003KT 8SM -RA FEW020 BKN028 04/02 A2999 RMK AO2 SLP161 P0003 60016 T00390022 10044 20033 58019
  • 251654Z 24003KT 7SM -RA FEW028 BKN070 OVC085 03/02 A3005 RMK AO2 SLP183 P0009 T00330017

TAF KROA
Valid from the 25 at 19:00 until the 26 at 18:00 UTC


251834Z 2519/2618 11007KT 6SM -RA BR BKN009 OVC025
FM251930 10006KT 3SM RA BR OVC004
FM260000 VRB04KT 6SM -RA BR OVC004
FM261000 VRB02KT 4SM -RA BR OVC002
FM261600 19005KT P6SM SCT005 BKN013
KZDC FIR / North America



MET'MAP, your aeronautical weather chart ! - Copyright ORBIFLY December 2007 - Disclaimer

ORBIFLY MET'MAP TEAM :

Programming & Development : Alexandra Zaïnal
Concept & original design : Baudouin d'Aumeries
Assistance for programming : Marc-Olivier Méhu
Technical & hardware support : Manuel Goepfert

Contact : metmap@orbifly.com




SOURCES & CREDITS :

   NOAA       Earth
Advisory